KHTS

Tri-State / Milton J Ferguson Field Airport

Huntington, West Virginia, USA
KHTS 230527Z 2306/2406 17009G16KT P6SM BKN060 FM231500 18009G17KT P6SM OVC060 WS020/20050KT FM231900 19009G17KT P6SM -RA OVC040 WS020/20050KT FM232200 19006KT 5SM -RA OVC015 FM240200 25004KT 3SM -RA OVC007
Issued Valid From Valid To
Jan-23 @ 05:27 UTC
(2 hours ago)
Jan-23 @ 06:00 UTC
(2 hours ago)
Jan-24 @ 06:00 UTC
(in 22 hours)
Jan-23 @ 06:00 to Jan-23 @ 15:00
KHTS 230527Z 2306/2406 17009G16KT P6SM BKN060
Wind Visibility Clouds
170° at 9 knots
 Gusting to 16 knots
Greater than 6 miles
  • Broken at 6,000' AGL
From Jan-23 @ 15:00 to Jan-23 @ 19:00
FM231500 18009G17KT P6SM OVC060 WS020/20050KT
Wind Visibility Clouds
180° at 9 knots
 Gusting to 17 knots
 Wind shear 2,000' AGL from 200° at 50 knots
Greater than 6 miles
  • Overcast at 6,000' AGL
From Jan-23 @ 19:00 to Jan-23 @ 22:00
FM231900 19009G17KT P6SM -RA OVC040 WS020/20050KT
Wind Visibility Clouds Conditions
190° at 9 knots
 Gusting to 17 knots
 Wind shear 2,000' AGL from 200° at 50 knots
Greater than 6 miles
  • Overcast at 4,000' AGL
  • Light Rain
From Jan-23 @ 22:00 to Jan-24 @ 02:00
FM232200 19006KT 5SM -RA OVC015
Wind Visibility Clouds Conditions
190° at 6 knots 5 miles
  • Overcast at 1,500' AGL
  • Light Rain
From Jan-24 @ 02:00 to Jan-24 @ 06:00
FM240200 25004KT 3SM -RA OVC007
Wind Visibility Clouds Conditions
250° at 4 knots 3 miles
  • Overcast at 700' AGL
  • Light Rain
KHTS 230527Z 2306/2406 17009G16KT P6SM BKN060 FM231500 18009G17KT P6SM OVC060 WS020/20050KT FM231900 19009G17KT P6SM -RA OVC040 WS020/20050KT FM232200 19006KT 5SM -RA OVC015 FM240200 25004KT 3SM -RA OVC007
Issued Jan-23 @ 05:27 UTC
(2 hours ago)
Valid From Jan-23 @ 06:00 UTC
(2 hours ago)
Valid To Jan-24 @ 06:00 UTC
(in 22 hours)
Jan-23 @ 06:00 - Jan-23 @ 15:00
Wind Visibility
170° at 9 knots
 Gusting to 16 knots
Greater than 6 miles
Clouds
  • Broken at 6,000' AGL
From Jan-23 @ 15:00 - Jan-23 @ 19:00
Wind Visibility
180° at 9 knots
 Gusting to 17 knots
Greater than 6 miles
Clouds
  • Overcast at 6,000' AGL
From Jan-23 @ 19:00 - Jan-23 @ 22:00
Wind Visibility
190° at 9 knots
 Gusting to 17 knots
Greater than 6 miles
Clouds
  • Overcast at 4,000' AGL
Conditions
  • Light Rain
From Jan-23 @ 22:00 - Jan-24 @ 02:00
Wind Visibility
190° at 6 knots 5 miles
Clouds
  • Overcast at 1,500' AGL
Conditions
  • Light Rain
From Jan-24 @ 02:00 - Jan-24 @ 06:00
Wind Visibility
250° at 4 knots 3 miles
Clouds
  • Overcast at 700' AGL
Conditions
  • Light Rain